Time;durP1;ratioP1;P1;durP2;ratioP2;P2;SDS_P1;SDS_P2;PMS_P1;PMS_P2;Temp;Humidity;BMP_temperature;BMP_pressure;BME280_temperature;BME280_humidity;BME280_pressure;Samples;Min_cycle;Max_cycle;Signal;HPM_P1;HPM_P2
2022/01/08 00:02:11;;;;;;;7.90;2.35;;;1.40;99.90;;;;;;5129958;27;20454;-57
2022/01/08 00:04:37;;;;;;;5.00;1.70;;;1.40;99.90;;;;;;5102009;27;20505;-59
2022/01/08 00:07:03;;;;;;;8.05;2.15;;;1.40;99.90;;;;;;5126056;27;20142;-57
2022/01/08 00:09:29;;;;;;;8.05;2.42;;;1.30;99.90;;;;;;5098916;27;20114;-58
2022/01/08 00:11:55;;;;;;;6.28;2.20;;;1.30;99.90;;;;;;5124901;27;20460;-58
2022/01/08 00:14:22;;;;;;;7.30;3.08;;;1.30;99.90;;;;;;5120937;27;20046;-59
2022/01/08 00:16:48;;;;;;;7.82;2.13;;;1.30;99.90;;;;;;5106318;27;20234;-58
2022/01/08 00:19:14;;;;;;;6.25;2.05;;;1.30;99.90;;;;;;5095941;27;20474;-57
2022/01/08 00:21:40;;;;;;;5.97;2.47;;;1.30;99.90;;;;;;5121172;27;20078;-57
2022/01/08 00:24:06;;;;;;;5.90;2.10;;;1.30;99.90;;;;;;5122381;27;20042;-58
2022/01/08 00:26:32;;;;;;;7.30;2.30;;;1.30;99.90;;;;;;5118496;27;20550;-59
2022/01/08 00:28:59;;;;;;;7.85;2.08;;;1.30;99.90;;;;;;5114803;27;20043;-57
2022/01/08 00:31:25;;;;;;;7.53;2.53;;;1.30;99.90;;;;;;5078095;27;20138;-58
2022/01/08 00:33:52;;;;;;;4.97;2.15;;;1.40;99.90;;;;;;5122213;27;20058;-58
2022/01/08 00:36:18;;;;;;;5.10;2.15;;;1.40;99.90;;;;;;5107326;27;20039;-56
2022/01/08 00:38:44;;;;;;;9.55;2.35;;;1.40;99.90;;;;;;5103857;27;20043;-58
2022/01/08 00:41:09;;;;;;;5.72;2.45;;;1.40;99.90;;;;;;5120903;27;20107;-58
2022/01/08 00:43:35;;;;;;;8.73;2.47;;;1.40;99.90;;;;;;5121498;27;20050;-59
2022/01/08 00:46:01;;;;;;;6.57;2.05;;;1.50;99.90;;;;;;5123405;27;20537;-57
2022/01/08 00:48:27;;;;;;;7.68;2.55;;;1.40;99.90;;;;;;5120816;27;20409;-59
2022/01/08 00:50:53;;;;;;;7.72;2.30;;;1.40;99.90;;;;;;5118106;27;20054;-58
2022/01/08 00:53:19;;;;;;;8.60;2.45;;;1.40;99.90;;;;;;5101523;27;20038;-59
2022/01/08 00:55:45;;;;;;;10.68;2.42;;;1.30;99.90;;;;;;5123339;27;20039;-58
2022/01/08 00:58:11;;;;;;;9.27;2.60;;;1.30;99.90;;;;;;5124539;27;20047;-58
2022/01/08 01:00:37;;;;;;;6.47;2.30;;;1.30;99.90;;;;;;5122402;27;20456;-57
2022/01/08 01:03:03;;;;;;;8.48;2.50;;;1.30;99.90;;;;;;5124428;27;20043;-58
2022/01/08 01:05:29;;;;;;;7.75;2.70;;;1.30;99.90;;;;;;5110676;27;22859;-58
2022/01/08 01:07:55;;;;;;;7.25;2.90;;;1.30;99.90;;;;;;5100909;27;20057;-57
2022/01/08 01:10:21;;;;;;;8.13;2.70;;;1.30;99.90;;;;;;5100130;27;20039;-58
2022/01/08 01:12:47;;;;;;;11.60;2.90;;;1.30;99.90;;;;;;5125368;27;20042;-57
2022/01/08 01:15:15;;;;;;;7.22;3.05;;;1.30;99.90;;;;;;5105040;27;20180;-57
2022/01/08 01:17:41;;;;;;;7.97;3.00;;;1.30;99.90;;;;;;5107297;27;20051;-58
2022/01/08 01:20:10;;;;;;;7.65;3.50;;;1.30;99.90;;;;;;5118383;27;20054;-58
2022/01/08 01:22:58;;;;;;;5.63;3.35;;;1.30;99.90;;;;;;5121524;27;20047;-59
2022/01/08 01:25:32;;;;;;;9.00;3.58;;;1.30;99.90;;;;;;5122634;27;20107;-58
2022/01/08 01:41:51;;;;;;;8.00;3.50;;;1.30;99.90;;;;;;5122971;27;20047;-57
2022/01/08 01:47:04;;;;;;;11.13;3.65;;;1.30;99.90;;;;;;5122718;27;20534;-57
2022/01/08 01:49:39;;;;;;;5.97;3.45;;;1.30;99.90;;;;;;5116052;27;20076;-57
2022/01/08 01:52:07;;;;;;;6.43;3.40;;;1.30;99.90;;;;;;5102203;27;20053;-57
2022/01/08 01:54:33;;;;;;;8.10;3.80;;;1.30;99.90;;;;;;5120229;27;20123;-58
2022/01/08 01:57:00;;;;;;;13.43;4.22;;;1.40;99.90;;;;;;5118879;27;20525;-58
2022/01/08 01:59:29;;;;;;;7.55;3.92;;;1.30;99.90;;;;;;5114039;27;20150;-57
2022/01/08 02:01:55;;;;;;;9.02;4.07;;;1.30;99.90;;;;;;5107434;27;20058;-59
2022/01/08 02:04:21;;;;;;;8.70;4.20;;;1.30;99.90;;;;;;5119812;27;20053;-57
2022/01/08 02:06:47;;;;;;;10.60;4.05;;;1.30;99.90;;;;;;5120295;27;20051;-58
2022/01/08 02:09:13;;;;;;;11.07;3.80;;;1.30;99.90;;;;;;5119748;27;20046;-58
2022/01/08 02:12:05;;;;;;;8.55;3.63;;;1.30;99.90;;;;;;5121577;27;20043;-56
2022/01/08 02:14:33;;;;;;;12.95;3.95;;;1.30;99.90;;;;;;5127215;27;20477;-57
2022/01/08 02:16:59;;;;;;;9.57;3.60;;;1.30;99.90;;;;;;5127373;27;20112;-57
2022/01/08 02:19:26;;;;;;;7.35;3.20;;;1.30;99.90;;;;;;5116337;27;20871;-57
2022/01/08 02:21:55;;;;;;;6.68;3.25;;;1.40;99.90;;;;;;5100294;27;20046;-58
2022/01/08 02:24:21;;;;;;;9.82;3.53;;;1.30;99.90;;;;;;5121672;27;20138;-59
2022/01/08 02:26:46;;;;;;;10.88;3.55;;;1.30;99.90;;;;;;5098571;27;20075;-58
2022/01/08 02:29:18;;;;;;;6.28;2.75;;;1.30;99.90;;;;;;5119017;27;20459;-58
2022/01/08 02:31:53;;;;;;;7.75;2.95;;;1.30;99.90;;;;;;5124618;27;20104;-58
2022/01/08 02:34:18;;;;;;;8.15;2.90;;;1.30;99.90;;;;;;5122562;27;20064;-58
2022/01/08 02:36:44;;;;;;;9.60;2.47;;;1.30;99.90;;;;;;5122759;27;20047;-57
2022/01/08 02:39:12;;;;;;;7.28;2.72;;;1.30;99.90;;;;;;5116960;27;20390;-59
2022/01/08 02:41:39;;;;;;;8.30;2.55;;;1.30;99.90;;;;;;5119884;27;20581;-57
2022/01/08 02:44:08;;;;;;;11.00;2.60;;;1.30;99.90;;;;;;5122641;27;20050;-59
2022/01/08 02:46:34;;;;;;;3.38;2.42;;;1.40;99.90;;;;;;5120083;27;20075;-58
2022/01/08 02:48:59;;;;;;;7.60;2.63;;;1.40;99.90;;;;;;5101501;27;20122;-58
2022/01/08 02:51:25;;;;;;;5.43;2.00;;;1.40;99.90;;;;;;5117059;27;20044;-58
2022/01/08 02:53:51;;;;;;;4.30;1.80;;;1.40;99.90;;;;;;5116774;27;20047;-59
2022/01/08 02:56:17;;;;;;;7.47;2.15;;;1.40;99.90;;;;;;5121918;27;20086;-57
2022/01/08 02:58:43;;;;;;;7.32;2.35;;;1.40;99.90;;;;;;5118821;27;20039;-58
2022/01/08 03:01:09;;;;;;;3.53;1.90;;;1.40;99.90;;;;;;5119552;27;20378;-58
2022/01/08 03:03:35;;;;;;;4.45;1.98;;;1.30;99.90;;;;;;5125347;27;20057;-57
2022/01/08 03:06:01;;;;;;;2.85;1.77;;;1.30;99.90;;;;;;5102850;27;20078;-58
2022/01/08 03:08:27;;;;;;;5.80;1.80;;;1.20;99.90;;;;;;5085136;27;20139;-58
2022/01/08 03:10:55;;;;;;;4.45;1.70;;;1.20;99.90;;;;;;5100984;27;20050;-57
2022/01/08 03:13:21;;;;;;;5.65;1.73;;;1.20;99.90;;;;;;5120473;27;20058;-57
2022/01/08 03:15:47;;;;;;;3.97;1.50;;;1.20;99.90;;;;;;5124431;27;20043;-58
2022/01/08 03:18:13;;;;;;;2.72;1.42;;;1.10;99.90;;;;;;5129574;27;20500;-58
2022/01/08 03:20:47;;;;;;;4.78;1.77;;;1.10;99.90;;;;;;5124491;27;20039;-59
2022/01/08 03:23:16;;;;;;;5.45;1.80;;;1.10;99.90;;;;;;5122810;27;20509;-58
2022/01/08 03:25:42;;;;;;;3.85;1.50;;;1.10;99.90;;;;;;5126721;27;20081;-58
2022/01/08 03:28:08;;;;;;;3.60;1.65;;;1.10;99.90;;;;;;5123676;27;20031;-57
2022/01/08 03:30:34;;;;;;;6.80;2.10;;;1.00;99.90;;;;;;5106163;27;20095;-56
2022/01/08 03:33:01;;;;;;;5.32;1.90;;;1.00;99.90;;;;;;5128473;27;20081;-59
2022/01/08 03:35:27;;;;;;;3.05;1.52;;;1.00;99.90;;;;;;5130352;27;20408;-58
2022/01/08 03:37:53;;;;;;;4.97;1.88;;;1.00;99.90;;;;;;5129280;27;20054;-59
2022/01/08 03:40:19;;;;;;;9.27;2.10;;;1.00;99.90;;;;;;5101274;27;20321;-58
2022/01/08 03:42:44;;;;;;;9.30;1.80;;;0.90;99.90;;;;;;5130375;27;20394;-58
2022/01/08 03:45:11;;;;;;;6.82;2.00;;;1.00;99.90;;;;;;5104955;27;20046;-57
2022/01/08 03:50:29;;;;;;;3.65;1.50;;;0.90;99.90;;;;;;5088715;27;20062;-58
2022/01/08 03:52:55;;;;;;;5.70;1.58;;;0.90;99.90;;;;;;5125156;27;20385;-57
2022/01/08 03:55:22;;;;;;;8.40;1.67;;;0.90;99.90;;;;;;5124573;27;20062;-58
2022/01/08 03:57:48;;;;;;;6.28;1.73;;;0.90;99.90;;;;;;5122812;27;20068;-58
2022/01/08 04:00:14;;;;;;;3.53;1.70;;;0.90;99.90;;;;;;5120995;27;20051;-58
2022/01/08 04:02:40;;;;;;;8.13;1.60;;;0.90;99.90;;;;;;5106431;27;20051;-58
2022/01/08 04:05:07;;;;;;;7.32;1.50;;;0.90;99.90;;;;;;5103510;27;20054;-57
2022/01/08 04:07:32;;;;;;;6.75;2.25;;;0.90;99.90;;;;;;5120915;27;20073;-59
2022/01/08 04:09:58;;;;;;;4.18;1.83;;;0.90;99.90;;;;;;5073205;27;20051;-58
2022/01/08 04:12:36;;;;;;;4.90;1.73;;;0.90;99.90;;;;;;5104622;27;20160;-58
2022/01/08 04:15:31;;;;;;;3.58;1.80;;;0.90;99.90;;;;;;5108164;27;20043;-56
2022/01/08 04:17:54;;;;;;;5.50;1.38;;;0.90;99.90;;;;;;5122608;27;20047;-58
2022/01/08 04:20:21;;;;;;;6.70;2.05;;;0.90;99.90;;;;;;5121306;27;20047;-56
2022/01/08 04:22:50;;;;;;;6.32;1.73;;;0.90;99.90;;;;;;5107663;27;20038;-57
2022/01/08 04:25:18;;;;;;;4.10;1.30;;;0.80;99.90;;;;;;5122206;27;20046;-57
2022/01/08 04:27:44;;;;;;;4.05;1.40;;;0.90;99.90;;;;;;5124350;27;20043;-57
2022/01/08 04:30:11;;;;;;;6.03;1.55;;;0.90;99.90;;;;;;5093187;27;20564;-59
2022/01/08 04:32:36;;;;;;;3.22;1.30;;;0.90;99.90;;;;;;5123319;27;20035;-58
2022/01/08 04:35:03;;;;;;;4.85;1.30;;;1.00;99.90;;;;;;5106655;27;20058;-58
2022/01/08 04:37:29;;;;;;;5.70;1.30;;;1.00;99.90;;;;;;5123624;27;20046;-58
2022/01/08 04:39:55;;;;;;;6.53;1.40;;;1.00;99.90;;;;;;5123327;27;20043;-56
2022/01/08 04:42:21;;;;;;;9.65;1.73;;;1.10;99.90;;;;;;5101784;27;20039;-57
2022/01/08 04:44:47;;;;;;;4.72;1.67;;;1.10;99.90;;;;;;5123375;27;20114;-58
2022/01/08 04:47:13;;;;;;;6.72;1.60;;;1.10;99.90;;;;;;5125504;27;20157;-57
2022/01/08 04:49:39;;;;;;;6.95;1.55;;;1.10;99.90;;;;;;5119454;27;20130;-58
2022/01/08 04:52:05;;;;;;;3.25;1.60;;;1.10;99.90;;;;;;5122708;27;20391;-58
2022/01/08 04:54:31;;;;;;;7.90;1.80;;;1.20;99.90;;;;;;5122961;27;20032;-58
2022/01/08 04:56:57;;;;;;;9.05;2.08;;;1.20;99.90;;;;;;5123591;27;20050;-58
2022/01/08 04:59:23;;;;;;;9.50;2.25;;;1.20;99.90;;;;;;5121103;27;20104;-57
2022/01/08 05:01:48;;;;;;;10.32;2.15;;;1.20;99.90;;;;;;5102552;27;20523;-59
2022/01/08 05:04:14;;;;;;;12.88;2.33;;;1.20;99.90;;;;;;5093776;27;20378;-58
2022/01/08 05:06:40;;;;;;;7.45;1.75;;;1.20;99.90;;;;;;5121479;27;20043;-58
2022/01/08 05:09:06;;;;;;;6.13;2.00;;;1.20;99.90;;;;;;5121782;27;20092;-56
2022/01/08 05:11:31;;;;;;;15.38;2.28;;;1.30;99.90;;;;;;5119488;27;20032;-59
2022/01/08 05:13:58;;;;;;;11.05;2.40;;;1.30;99.90;;;;;;5104041;27;20046;-58
2022/01/08 05:16:26;;;;;;;10.00;2.13;;;1.30;99.90;;;;;;5121826;27;20111;-58
2022/01/08 05:18:54;;;;;;;7.57;1.90;;;1.30;99.90;;;;;;5102623;27;20047;-57
2022/01/08 05:21:30;;;;;;;5.20;1.70;;;1.30;99.90;;;;;;5118627;27;20051;-58
2022/01/08 05:23:57;;;;;;;5.18;1.88;;;1.30;99.90;;;;;;5120642;27;20051;-58
2022/01/08 05:26:25;;;;;;;6.88;2.00;;;1.30;99.90;;;;;;5122849;27;20065;-58
2022/01/08 05:28:52;;;;;;;6.90;2.08;;;1.20;99.90;;;;;;5082668;27;20145;-58
2022/01/08 05:31:20;;;;;;;10.27;2.05;;;1.20;99.90;;;;;;5097854;27;20459;-58
2022/01/08 05:33:47;;;;;;;9.35;2.10;;;1.20;99.90;;;;;;5111283;27;20497;-58
2022/01/08 05:36:13;;;;;;;2.88;1.77;;;1.20;99.90;;;;;;5118431;27;20104;-58
2022/01/08 05:38:39;;;;;;;5.95;2.00;;;1.20;99.90;;;;;;5118673;27;20047;-58
2022/01/08 05:41:05;;;;;;;6.07;2.05;;;1.20;99.90;;;;;;5119887;27;20431;-57
2022/01/08 05:43:31;;;;;;;5.35;1.90;;;1.10;99.90;;;;;;5122438;27;20046;-58
2022/01/08 05:45:57;;;;;;;5.97;2.08;;;1.10;99.90;;;;;;5120870;27;20100;-59
2022/01/08 05:48:24;;;;;;;7.43;1.80;;;1.10;99.90;;;;;;5119305;27;20035;-59
2022/01/08 05:50:50;;;;;;;10.88;1.88;;;1.10;99.90;;;;;;5119386;27;20057;-58
2022/01/08 05:53:20;;;;;;;6.35;1.98;;;1.10;99.90;;;;;;5122900;27;20063;-59
2022/01/08 05:55:47;;;;;;;8.70;2.13;;;1.10;99.90;;;;;;5119394;27;20088;-59
2022/01/08 05:58:12;;;;;;;7.47;1.90;;;1.00;99.90;;;;;;5120594;27;20705;-58
2022/01/08 06:00:39;;;;;;;7.78;2.53;;;1.10;99.90;;;;;;5098507;27;20047;-57
2022/01/08 06:03:05;;;;;;;5.88;2.15;;;1.10;99.90;;;;;;5125098;27;20521;-58
2022/01/08 06:05:30;;;;;;;5.65;2.10;;;1.00;99.90;;;;;;5101764;27;20527;-57
2022/01/08 06:07:56;;;;;;;5.72;1.88;;;1.00;99.90;;;;;;5103961;27;20522;-58
2022/01/08 06:10:22;;;;;;;5.85;2.00;;;1.00;99.90;;;;;;5106917;27;20074;-57
2022/01/08 06:12:49;;;;;;;4.45;1.90;;;1.00;99.90;;;;;;5105003;27;20124;-59
2022/01/08 06:15:14;;;;;;;3.85;1.95;;;0.90;99.90;;;;;;5123244;27;20051;-58
2022/01/08 06:17:40;;;;;;;9.50;2.28;;;0.90;99.90;;;;;;5106259;27;20126;-57
2022/01/08 06:20:07;;;;;;;9.02;2.53;;;0.90;99.90;;;;;;5117250;27;20046;-57
2022/01/08 06:22:33;;;;;;;7.43;2.30;;;0.90;99.90;;;;;;5122830;27;20039;-58
2022/01/08 06:24:59;;;;;;;7.13;2.85;;;0.90;99.90;;;;;;5120581;27;20050;-57
2022/01/08 06:27:25;;;;;;;5.63;3.00;;;0.90;99.90;;;;;;5122956;27;20042;-59
2022/01/08 06:29:51;;;;;;;8.00;3.40;;;0.90;99.90;;;;;;5097873;27;20088;-58
2022/01/08 06:32:17;;;;;;;10.02;3.38;;;0.90;99.90;;;;;;5106035;27;20051;-57
2022/01/08 06:34:43;;;;;;;13.00;3.38;;;0.90;99.90;;;;;;5122066;27;20047;-58
2022/01/08 06:37:09;;;;;;;12.50;3.80;;;0.90;99.90;;;;;;5091047;27;20043;-59
2022/01/08 06:39:35;;;;;;;11.52;3.90;;;0.90;99.90;;;;;;5113370;27;20042;-59
2022/01/08 06:42:02;;;;;;;10.63;4.25;;;0.90;99.90;;;;;;5124003;27;21699;-59
2022/01/08 06:44:27;;;;;;;14.13;5.00;;;0.90;99.90;;;;;;5101292;27;20138;-57
2022/01/08 06:46:53;;;;;;;10.55;4.95;;;0.90;99.90;;;;;;5125048;27;20039;-58
2022/01/08 06:49:19;;;;;;;12.18;4.57;;;0.90;99.90;;;;;;5116711;27;20047;-57
2022/01/08 06:51:45;;;;;;;11.63;4.70;;;0.90;99.90;;;;;;5104918;27;20534;-58
2022/01/08 06:54:11;;;;;;;17.45;4.68;;;0.80;99.90;;;;;;5123666;27;20044;-58
2022/01/08 06:56:37;;;;;;;14.45;5.22;;;0.80;99.90;;;;;;5122132;27;20047;-58
2022/01/08 06:59:03;;;;;;;14.85;5.10;;;0.80;99.90;;;;;;5119257;27;20062;-58
2022/01/08 07:01:29;;;;;;;10.90;4.90;;;0.80;99.90;;;;;;5122601;27;20151;-58
2022/01/08 07:03:55;;;;;;;13.82;5.47;;;0.80;99.90;;;;;;5100333;27;20082;-56
2022/01/08 07:06:22;;;;;;;14.02;6.45;;;0.80;99.90;;;;;;5118701;27;20909;-57
2022/01/08 07:08:48;;;;;;;12.70;5.25;;;0.70;99.90;;;;;;5118405;27;20074;-58
2022/01/08 07:11:13;;;;;;;18.05;6.80;;;0.70;99.90;;;;;;5119683;27;20066;-58
2022/01/08 07:13:39;;;;;;;17.42;7.63;;;0.70;99.90;;;;;;5118896;27;20480;-57
2022/01/08 07:16:06;;;;;;;20.60;8.65;;;0.70;99.90;;;;;;5121827;27;20133;-58
2022/01/08 07:18:32;;;;;;;15.05;6.60;;;0.70;99.90;;;;;;5118848;27;20041;-58
2022/01/08 07:20:58;;;;;;;14.63;6.38;;;0.70;99.90;;;;;;5120008;27;20059;-57
2022/01/08 07:23:24;;;;;;;15.75;6.93;;;0.80;99.90;;;;;;5106242;27;20043;-59
2022/01/08 07:25:50;;;;;;;16.13;7.22;;;0.80;99.90;;;;;;5097283;27;20680;-56
2022/01/08 07:28:15;;;;;;;19.17;6.95;;;0.80;99.90;;;;;;5126079;27;20215;-58
2022/01/08 07:30:41;;;;;;;13.50;6.40;;;0.80;99.90;;;;;;5123513;27;20043;-58
2022/01/08 07:33:07;;;;;;;19.58;6.93;;;0.80;99.90;;;;;;5123848;27;20050;-58
2022/01/08 07:35:33;;;;;;;14.18;6.07;;;0.80;99.90;;;;;;5118790;27;20126;-57
2022/01/08 07:37:59;;;;;;;21.70;8.18;;;0.80;99.90;;;;;;5122526;27;20035;-58
2022/01/08 07:40:25;;;;;;;22.95;7.07;;;0.80;99.90;;;;;;5120052;27;20050;-58
2022/01/08 07:42:51;;;;;;;22.33;7.07;;;0.80;99.90;;;;;;5091175;27;20113;-58
2022/01/08 07:45:18;;;;;;;18.85;6.68;;;0.90;99.90;;;;;;5120455;27;20382;-58
2022/01/08 07:47:44;;;;;;;16.30;6.68;;;0.90;99.90;;;;;;5123678;27;20051;-56
2022/01/08 07:50:10;;;;;;;19.88;6.28;;;0.90;99.90;;;;;;5118085;27;20062;-58
2022/01/08 07:52:36;;;;;;;15.57;6.40;;;0.90;99.90;;;;;;5102182;27;20039;-57
2022/01/08 07:55:02;;;;;;;14.55;7.00;;;0.90;99.90;;;;;;5122678;27;22093;-58
2022/01/08 07:57:28;;;;;;;21.13;6.18;;;0.90;99.90;;;;;;5118979;27;20074;-58
2022/01/08 07:59:54;;;;;;;17.23;6.10;;;0.90;99.90;;;;;;5118764;27;20079;-57
2022/01/08 08:02:20;;;;;;;18.63;6.55;;;0.80;99.90;;;;;;5095051;27;20461;-58
2022/01/08 08:04:46;;;;;;;14.73;5.70;;;0.80;99.90;;;;;;5124863;27;20150;-56
2022/01/08 08:07:12;;;;;;;13.38;6.07;;;0.80;99.90;;;;;;5124579;27;20462;-58
2022/01/08 08:09:37;;;;;;;11.85;5.65;;;0.90;99.90;;;;;;5120569;27;20457;-58
2022/01/08 08:12:04;;;;;;;12.43;5.20;;;0.90;99.90;;;;;;5106076;27;20044;-59
2022/01/08 08:14:31;;;;;;;13.45;4.90;;;0.90;99.90;;;;;;5125716;27;20051;-59
2022/01/08 08:16:56;;;;;;;16.52;5.57;;;0.90;99.90;;;;;;5123293;27;20462;-59
2022/01/08 08:19:22;;;;;;;15.35;5.60;;;0.80;99.90;;;;;;5119926;27;20043;-58
2022/01/08 08:21:48;;;;;;;16.80;5.05;;;0.90;99.90;;;;;;5101937;27;20327;-58
2022/01/08 08:24:18;;;;;;;15.27;5.35;;;0.90;99.90;;;;;;5072265;27;20104;-58
2022/01/08 08:26:44;;;;;;;15.88;5.70;;;0.90;99.90;;;;;;5122029;27;20044;-59
2022/01/08 08:29:10;;;;;;;10.98;5.53;;;0.90;99.90;;;;;;5119380;27;20058;-58
2022/01/08 08:31:36;;;;;;;17.10;5.60;;;0.90;99.90;;;;;;5120638;27;20063;-59
2022/01/08 08:34:02;;;;;;;16.13;5.35;;;1.00;99.90;;;;;;5122025;27;20115;-58
2022/01/08 08:36:27;;;;;;;19.88;7.10;;;1.10;99.90;;;;;;5121982;27;20505;-57
2022/01/08 08:38:53;;;;;;;15.38;6.25;;;1.10;99.90;;;;;;5124547;27;20043;-57
2022/01/08 08:41:20;;;;;;;15.80;6.68;;;1.10;99.90;;;;;;5104978;27;20078;-58
2022/01/08 08:43:45;;;;;;;16.45;7.93;;;1.20;99.90;;;;;;5123732;27;20047;-57
2022/01/08 08:46:11;;;;;;;20.88;7.57;;;1.20;99.90;;;;;;5107916;27;20104;-58
2022/01/08 08:48:37;;;;;;;18.63;6.68;;;1.20;99.90;;;;;;5091025;27;20035;-58
2022/01/08 08:51:03;;;;;;;17.42;6.95;;;1.20;99.90;;;;;;5090123;27;20481;-58
2022/01/08 08:53:28;;;;;;;24.25;8.43;;;1.30;99.90;;;;;;5130154;27;20051;-58
2022/01/08 08:55:54;;;;;;;18.45;8.77;;;1.30;99.90;;;;;;5128503;27;20050;-59
2022/01/08 08:58:20;;;;;;;20.17;8.32;;;1.30;99.90;;;;;;5098053;27;20061;-59
2022/01/08 09:00:46;;;;;;;24.00;7.22;;;1.30;99.90;;;;;;5089208;27;20134;-57
2022/01/08 09:03:12;;;;;;;16.95;6.35;;;1.30;99.90;;;;;;5109363;27;20080;-57
2022/01/08 09:05:38;;;;;;;18.30;8.13;;;1.40;99.90;;;;;;5126936;27;20066;-59
2022/01/08 09:08:04;;;;;;;31.67;14.60;;;1.40;99.90;;;;;;5108421;27;20047;-58
2022/01/08 09:10:32;;;;;;;34.85;14.98;;;1.40;99.90;;;;;;5074277;27;20043;-59
2022/01/08 09:12:59;;;;;;;22.90;8.52;;;1.40;99.90;;;;;;5109418;27;20078;-58
2022/01/08 09:15:26;;;;;;;18.95;9.00;;;1.50;99.90;;;;;;5119338;27;20043;-58
2022/01/08 09:17:56;;;;;;;37.45;13.30;;;1.50;99.90;;;;;;5126613;27;20071;-56
2022/01/08 09:20:23;;;;;;;17.30;7.43;;;1.60;99.90;;;;;;5109116;27;20047;-57
2022/01/08 09:22:49;;;;;;;14.20;8.40;;;1.60;99.90;;;;;;5123765;27;21918;-58
2022/01/08 09:25:15;;;;;;;24.17;7.35;;;1.70;99.90;;;;;;5107432;27;20104;-58
2022/01/08 09:27:41;;;;;;;25.35;9.32;;;1.70;99.90;;;;;;5121125;27;20055;-58
2022/01/08 09:30:08;;;;;;;22.58;9.20;;;1.80;99.90;;;;;;5116958;27;20062;-59
2022/01/08 09:32:34;;;;;;;32.03;9.95;;;1.90;99.90;;;;;;5105541;27;20035;-57
2022/01/08 09:35:00;;;;;;;22.30;10.95;;;1.90;99.90;;;;;;5102258;27;20584;-58
2022/01/08 09:37:25;;;;;;;16.58;8.40;;;2.00;99.90;;;;;;5100340;27;20134;-59
2022/01/08 09:39:52;;;;;;;16.05;6.85;;;2.10;99.90;;;;;;5101089;27;20047;-58
2022/01/08 09:42:17;;;;;;;18.70;8.48;;;2.10;99.90;;;;;;5117420;27;20054;-58
2022/01/08 09:44:44;;;;;;;24.17;9.18;;;2.10;99.90;;;;;;5100526;27;20043;-56
2022/01/08 09:47:11;;;;;;;19.75;9.52;;;2.20;99.90;;;;;;5127782;27;20563;-57
2022/01/08 09:49:38;;;;;;;23.80;9.85;;;2.20;99.90;;;;;;5099417;27;20039;-58
2022/01/08 09:52:05;;;;;;;26.00;11.45;;;2.30;99.90;;;;;;5123214;27;20095;-56
2022/01/08 09:54:31;;;;;;;26.92;11.68;;;2.30;99.90;;;;;;5130129;27;20043;-58
2022/01/08 09:56:58;;;;;;;34.45;17.25;;;2.30;99.90;;;;;;5129111;27;20042;-59
2022/01/08 09:59:24;;;;;;;33.17;17.52;;;2.40;99.90;;;;;;5125475;27;20623;-57
2022/01/08 10:01:59;;;;;;;22.00;10.82;;;2.50;99.90;;;;;;5126543;27;20095;-58
2022/01/08 10:04:36;;;;;;;24.45;9.65;;;2.60;99.90;;;;;;5128959;27;20043;-57
2022/01/08 10:07:25;;;;;;;23.38;10.23;;;2.70;99.90;;;;;;5135835;27;20043;-58
2022/01/08 10:10:12;;;;;;;28.95;8.30;;;2.80;99.90;;;;;;5125580;27;20031;-57
2022/01/08 10:12:55;;;;;;;21.08;7.95;;;2.80;99.90;;;;;;5112904;27;20112;-58
2022/01/08 10:18:20;;;;;;;21.13;7.78;;;2.80;99.90;;;;;;5131498;27;20068;-58
2022/01/08 10:20:49;;;;;;;17.48;7.00;;;2.90;99.90;;;;;;5122588;27;20100;-58
2022/01/08 10:23:18;;;;;;;15.10;7.90;;;2.90;99.90;;;;;;5123221;27;20049;-58
2022/01/08 10:26:00;;;;;;;14.18;7.63;;;2.90;99.90;;;;;;5126437;27;20115;-58
2022/01/08 10:28:37;;;;;;;19.98;5.20;;;3.00;99.90;;;;;;5124617;27;20094;-58
2022/01/08 10:31:11;;;;;;;11.05;5.00;;;3.00;99.90;;;;;;5098074;27;20086;-58
2022/01/08 10:33:37;;;;;;;17.60;5.43;;;3.00;99.90;;;;;;5100347;27;20039;-57
2022/01/08 10:36:04;;;;;;;13.40;4.30;;;3.10;99.90;;;;;;5098746;27;20042;-58
2022/01/08 10:38:30;;;;;;;14.02;4.82;;;3.10;99.90;;;;;;5103887;27;20483;-59
2022/01/08 10:40:59;;;;;;;15.88;4.40;;;3.10;99.90;;;;;;5094047;27;20039;-58
2022/01/08 10:43:29;;;;;;;14.23;4.53;;;3.10;99.90;;;;;;5109849;27;20035;-57
2022/01/08 10:46:06;;;;;;;12.15;4.75;;;3.20;99.90;;;;;;5104041;27;20044;-59
2022/01/08 10:48:32;;;;;;;14.48;4.28;;;3.20;99.90;;;;;;5094598;28;20092;-57
2022/01/08 10:51:12;;;;;;;15.77;4.20;;;3.10;99.90;;;;;;5099165;28;20043;-59
2022/01/08 10:53:56;;;;;;;14.40;4.03;;;3.10;99.90;;;;;;5099132;28;20048;-58
2022/01/08 10:56:27;;;;;;;8.05;4.20;;;3.10;99.90;;;;;;5099514;28;20096;-57
2022/01/08 10:59:29;;;;;;;14.18;4.82;;;3.10;99.90;;;;;;5103290;28;20135;-58
2022/01/08 11:02:09;;;;;;;14.27;4.93;;;3.10;99.90;;;;;;5051428;28;20569;-58
2022/01/08 11:04:48;;;;;;;14.05;5.18;;;3.10;99.90;;;;;;5110070;27;20427;-59
2022/01/08 11:07:32;;;;;;;11.73;4.50;;;3.10;99.90;;;;;;5102637;28;20126;-59
2022/01/08 11:10:12;;;;;;;13.77;5.22;;;3.10;99.90;;;;;;5106287;28;20058;-58
2022/01/08 11:12:41;;;;;;;17.25;5.43;;;3.10;99.90;;;;;;5103587;28;20039;-58
2022/01/08 11:17:47;;;;;;;17.23;5.38;;;3.10;99.90;;;;;;5103921;28;20048;-59
2022/01/08 11:20:22;;;;;;;13.13;6.03;;;3.10;99.90;;;;;;5099934;28;20134;-57
2022/01/08 11:22:50;;;;;;;14.10;6.10;;;3.10;99.90;;;;;;5104317;28;20110;-59
2022/01/08 11:25:32;;;;;;;15.05;5.70;;;3.10;99.90;;;;;;5103406;28;20048;-58
2022/01/08 11:28:10;;;;;;;15.77;6.45;;;3.20;99.90;;;;;;5100224;28;20054;-59
2022/01/08 11:30:41;;;;;;;12.95;6.40;;;3.20;99.90;;;;;;5118603;27;20071;-57
2022/01/08 11:35:55;;;;;;;13.27;6.70;;;3.30;99.90;;;;;;5103209;27;20078;-58
2022/01/08 11:38:23;;;;;;;14.30;6.25;;;3.30;99.90;;;;;;5120012;27;20040;-57
2022/01/08 11:40:50;;;;;;;10.82;6.05;;;3.30;99.90;;;;;;5126807;27;20134;-59
2022/01/08 11:43:22;;;;;;;17.25;6.45;;;3.30;99.90;;;;;;5117776;27;20051;-58
2022/01/08 11:45:53;;;;;;;18.52;6.72;;;3.30;99.90;;;;;;5098874;27;20457;-59
2022/01/08 11:48:24;;;;;;;14.50;6.15;;;3.40;99.90;;;;;;5130043;27;20515;-57
2022/01/08 11:50:55;;;;;;;15.05;6.57;;;3.40;99.90;;;;;;5119266;27;20042;-58
2022/01/08 11:53:29;;;;;;;17.65;7.50;;;3.40;99.90;;;;;;5101106;27;20078;-56
2022/01/08 11:55:59;;;;;;;16.63;6.57;;;3.40;99.90;;;;;;5126315;27;20082;-57
2022/01/08 11:58:27;;;;;;;15.00;6.88;;;3.40;99.90;;;;;;5128077;27;20047;-57
2022/01/08 12:00:57;;;;;;;19.42;6.85;;;3.40;99.90;;;;;;5110128;27;20084;-59
2022/01/08 12:03:36;;;;;;;12.30;6.80;;;3.50;99.90;;;;;;5127631;27;20504;-59
2022/01/08 12:06:32;;;;;;;17.15;7.63;;;3.50;99.90;;;;;;5108789;27;20534;-58
2022/01/08 12:09:27;;;;;;;13.73;7.18;;;3.50;99.90;;;;;;5118975;27;20096;-58
2022/01/08 12:12:04;;;;;;;18.77;7.32;;;3.50;99.90;;;;;;5099737;27;20073;-58
2022/01/08 12:14:45;;;;;;;17.77;7.10;;;3.50;99.90;;;;;;5127773;27;20062;-57
2022/01/08 12:17:15;;;;;;;16.83;7.53;;;3.50;99.90;;;;;;5126476;27;20051;-58
2022/01/08 12:20:07;;;;;;;19.38;8.40;;;3.50;99.90;;;;;;5125132;27;20050;-57
2022/01/08 12:22:33;;;;;;;13.73;7.20;;;3.50;99.90;;;;;;5126953;27;20110;-58
2022/01/08 12:25:03;;;;;;;16.23;8.07;;;3.40;99.90;;;;;;5125202;27;20047;-59
2022/01/08 12:27:35;;;;;;;17.38;7.53;;;3.40;99.90;;;;;;5122858;27;20095;-57
2022/01/08 12:30:15;;;;;;;14.50;8.05;;;3.50;99.90;;;;;;5122399;27;20405;-58
2022/01/08 12:32:47;;;;;;;18.55;8.38;;;3.50;99.90;;;;;;5122106;27;20153;-58
2022/01/08 12:35:17;;;;;;;16.10;8.55;;;3.50;99.90;;;;;;5121823;27;20050;-58
2022/01/08 12:37:45;;;;;;;16.23;8.82;;;3.50;99.90;;;;;;5103497;27;20280;-57
2022/01/08 12:40:30;;;;;;;15.05;9.23;;;3.50;99.90;;;;;;5102188;27;20050;-58
2022/01/08 12:42:56;;;;;;;20.10;10.05;;;3.60;99.90;;;;;;5131356;27;20461;-59
2022/01/08 12:45:33;;;;;;;17.85;9.93;;;3.50;99.90;;;;;;5121689;27;20032;-56
2022/01/08 12:48:13;;;;;;;21.52;9.63;;;3.60;99.90;;;;;;5126212;27;20086;-59
2022/01/08 12:50:42;;;;;;;21.08;10.35;;;3.60;99.90;;;;;;5119275;27;20507;-58
2022/01/08 12:53:08;;;;;;;20.02;11.13;;;3.50;99.90;;;;;;5125294;27;20039;-59
2022/01/08 12:55:53;;;;;;;24.27;11.88;;;3.60;99.90;;;;;;5125845;27;20035;-57
2022/01/08 12:58:26;;;;;;;20.73;12.02;;;3.50;99.90;;;;;;5123435;27;20512;-58
2022/01/08 13:01:01;;;;;;;22.42;11.57;;;3.50;99.90;;;;;;5118074;27;20035;-57
2022/01/08 13:03:35;;;;;;;20.77;12.10;;;3.50;99.90;;;;;;5129021;27;20039;-57
2022/01/08 13:06:20;;;;;;;19.63;12.05;;;3.60;99.90;;;;;;5089146;27;20043;-57
2022/01/08 13:08:48;;;;;;;17.60;12.57;;;3.60;99.90;;;;;;5116135;27;20500;-59
2022/01/08 13:11:16;;;;;;;20.67;13.43;;;3.60;99.90;;;;;;5116554;27;20050;-57
2022/01/08 13:13:57;;;;;;;22.45;13.27;;;3.60;99.90;;;;;;5130410;27;20046;-58
2022/01/08 13:16:37;;;;;;;22.27;14.20;;;3.60;99.90;;;;;;5107355;27;20461;-58
2022/01/08 13:19:06;;;;;;;22.58;14.60;;;3.60;99.90;;;;;;5116274;27;20047;-59
2022/01/08 13:21:51;;;;;;;24.50;14.73;;;3.60;99.90;;;;;;5112055;27;20050;-57
2022/01/08 13:24:24;;;;;;;25.20;14.75;;;3.60;99.90;;;;;;5124378;27;20080;-62
2022/01/08 13:27:04;;;;;;;22.20;15.15;;;3.60;99.90;;;;;;5129500;27;20543;-59